sensor_id;sensor_type;location;lat;lon;timestamp;pressure;altitude;pressure_sealevel;temperature;humidity
78485;BME280;67773;50.806;8.776;2023-11-22T00:01:04;100420.41;;;4.15;81.92
78485;BME280;67773;50.806;8.776;2023-11-22T00:03:31;100424.84;;;4.11;82.24
78485;BME280;67773;50.806;8.776;2023-11-22T00:05:57;100417.91;;;4.04;82.30
78485;BME280;67773;50.806;8.776;2023-11-22T00:08:22;100428.44;;;4.04;82.44
78485;BME280;67773;50.806;8.776;2023-11-22T00:10:47;100437.13;;;4.09;82.08
78485;BME280;67773;50.806;8.776;2023-11-22T00:13:13;100442.34;;;4.12;81.18
78485;BME280;67773;50.806;8.776;2023-11-22T00:15:38;100440.69;;;4.03;81.00
78485;BME280;67773;50.806;8.776;2023-11-22T00:18:04;100450.31;;;4.04;80.88
78485;BME280;67773;50.806;8.776;2023-11-22T00:20:30;100449.44;;;4.04;81.08
78485;BME280;67773;50.806;8.776;2023-11-22T00:22:56;100446.72;;;4.13;81.02
78485;BME280;67773;50.806;8.776;2023-11-22T00:25:21;100455.53;;;4.09;80.19
78485;BME280;67773;50.806;8.776;2023-11-22T00:27:47;100450.19;;;4.15;80.11
78485;BME280;67773;50.806;8.776;2023-11-22T00:30:13;100451.09;;;4.13;78.37
78485;BME280;67773;50.806;8.776;2023-11-22T00:32:39;100461.63;;;4.11;80.38
78485;BME280;67773;50.806;8.776;2023-11-22T00:35:06;100458.16;;;4.09;79.83
78485;BME280;67773;50.806;8.776;2023-11-22T00:37:32;100443.28;;;4.08;80.00
78485;BME280;67773;50.806;8.776;2023-11-22T00:40:00;100449.50;;;3.99;78.73
78485;BME280;67773;50.806;8.776;2023-11-22T00:42:26;100452.19;;;3.96;78.58
78485;BME280;67773;50.806;8.776;2023-11-22T00:44:52;100461.81;;;3.97;78.86
78485;BME280;67773;50.806;8.776;2023-11-22T00:47:18;100460.09;;;3.92;78.57
78485;BME280;67773;50.806;8.776;2023-11-22T00:49:44;100456.63;;;3.90;77.94
78485;BME280;67773;50.806;8.776;2023-11-22T00:52:09;100453.16;;;3.85;77.64
78485;BME280;67773;50.806;8.776;2023-11-22T00:54:35;100453.28;;;3.77;77.93
78485;BME280;67773;50.806;8.776;2023-11-22T00:57:00;100461.16;;;3.74;78.39
78485;BME280;67773;50.806;8.776;2023-11-22T00:59:26;100463.06;;;3.60;78.92
78485;BME280;67773;50.806;8.776;2023-11-22T01:01:52;100473.66;;;3.51;79.09
78485;BME280;67773;50.806;8.776;2023-11-22T01:04:17;100484.97;;;3.54;79.98
78485;BME280;67773;50.806;8.776;2023-11-22T01:06:43;100492.03;;;3.49;79.97
78485;BME280;67773;50.806;8.776;2023-11-22T01:09:08;100503.41;;;3.50;78.38
78485;BME280;67773;50.806;8.776;2023-11-22T01:11:39;100499.97;;;3.41;78.72
78485;BME280;67773;50.806;8.776;2023-11-22T01:14:04;100499.91;;;3.49;79.46
78485;BME280;67773;50.806;8.776;2023-11-22T01:16:30;100500.84;;;3.45;78.78
78485;BME280;67773;50.806;8.776;2023-11-22T01:18:55;100509.66;;;3.35;79.95
78485;BME280;67773;50.806;8.776;2023-11-22T01:21:21;100504.47;;;3.29;79.80
78485;BME280;67773;50.806;8.776;2023-11-22T01:23:46;100519.44;;;3.16;79.50
78485;BME280;67773;50.806;8.776;2023-11-22T01:26:12;100509.91;;;3.01;79.41
78485;BME280;67773;50.806;8.776;2023-11-22T01:28:37;100521.19;;;3.15;79.25
78485;BME280;67773;50.806;8.776;2023-11-22T01:31:02;100525.63;;;3.01;80.73
78485;BME280;67773;50.806;8.776;2023-11-22T01:33:28;100522.22;;;2.90;81.58
78485;BME280;67773;50.806;8.776;2023-11-22T01:35:54;100528.38;;;2.86;81.30
78485;BME280;67773;50.806;8.776;2023-11-22T01:38:19;100534.56;;;2.74;80.42
78485;BME280;67773;50.806;8.776;2023-11-22T01:40:46;100531.09;;;2.68;81.69
78485;BME280;67773;50.806;8.776;2023-11-22T01:43:17;100541.59;;;2.65;81.45
78485;BME280;67773;50.806;8.776;2023-11-22T01:45:42;100531.94;;;2.74;82.08
78485;BME280;67773;50.806;8.776;2023-11-22T01:48:09;100545.09;;;2.64;81.70
78485;BME280;67773;50.806;8.776;2023-11-22T01:50:39;100547.69;;;2.65;81.90
78485;BME280;67773;50.806;8.776;2023-11-22T01:53:07;100552.13;;;2.54;82.66
78485;BME280;67773;50.806;8.776;2023-11-22T01:55:34;100554.75;;;2.49;82.27
78485;BME280;67773;50.806;8.776;2023-11-22T01:58:00;100561.72;;;2.56;82.88
78485;BME280;67773;50.806;8.776;2023-11-22T02:00:32;100568.72;;;2.54;82.19
78485;BME280;67773;50.806;8.776;2023-11-22T02:03:00;100573.16;;;2.40;83.55
78485;BME280;67773;50.806;8.776;2023-11-22T02:05:25;100574.91;;;2.29;83.74
78485;BME280;67773;50.806;8.776;2023-11-22T02:07:51;100576.63;;;2.39;84.64
78485;BME280;67773;50.806;8.776;2023-11-22T02:10:17;100582.75;;;2.37;84.93
78485;BME280;67773;50.806;8.776;2023-11-22T02:12:42;100581.91;;;2.31;84.78
78485;BME280;67773;50.806;8.776;2023-11-22T02:15:08;100574.91;;;2.32;84.71
78485;BME280;67773;50.806;8.776;2023-11-22T02:17:34;100563.59;;;2.21;84.90
78485;BME280;67773;50.806;8.776;2023-11-22T02:19:59;100565.34;;;2.20;85.47
78485;BME280;67773;50.806;8.776;2023-11-22T02:22:25;100570.56;;;2.19;85.48
78485;BME280;67773;50.806;8.776;2023-11-22T02:24:51;100567.97;;;2.16;85.34
78485;BME280;67773;50.806;8.776;2023-11-22T02:27:16;100559.22;;;2.17;86.26
78485;BME280;67773;50.806;8.776;2023-11-22T02:29:41;100554.03;;;2.05;85.25
78485;BME280;67773;50.806;8.776;2023-11-22T02:32:07;100549.66;;;2.07;85.34
78485;BME280;67773;50.806;8.776;2023-11-22T02:34:33;100555.75;;;2.15;86.06
78485;BME280;67773;50.806;8.776;2023-11-22T02:36:58;100556.63;;;2.14;85.63
78485;BME280;67773;50.806;8.776;2023-11-22T02:39:33;100549.69;;;2.00;85.53
78485;BME280;67773;50.806;8.776;2023-11-22T02:42:01;100556.66;;;1.95;85.71
78485;BME280;67773;50.806;8.776;2023-11-22T02:44:26;100554.06;;;1.86;86.35
78485;BME280;67773;50.806;8.776;2023-11-22T02:46:52;100548.84;;;1.80;86.89
78485;BME280;67773;50.806;8.776;2023-11-22T02:49:18;100554.94;;;1.76;86.58
78485;BME280;67773;50.806;8.776;2023-11-22T02:51:43;100562.78;;;1.82;86.80
78485;BME280;67773;50.806;8.776;2023-11-22T02:54:08;100571.53;;;1.72;86.59
78485;BME280;67773;50.806;8.776;2023-11-22T02:56:34;100576.75;;;1.75;87.20
78485;BME280;67773;50.806;8.776;2023-11-22T02:58:59;100577.63;;;1.77;85.88
78485;BME280;67773;50.806;8.776;2023-11-22T03:01:24;100588.09;;;1.80;86.32
78485;BME280;67773;50.806;8.776;2023-11-22T03:03:51;100581.13;;;1.71;85.89
78485;BME280;67773;50.806;8.776;2023-11-22T03:06:16;100591.63;;;1.67;86.73
78485;BME280;67773;50.806;8.776;2023-11-22T03:08:42;100590.72;;;1.60;86.66
78485;BME280;67773;50.806;8.776;2023-11-22T03:11:07;100587.22;;;1.52;85.88
78485;BME280;67773;50.806;8.776;2023-11-22T03:13:33;100592.47;;;1.54;86.25
78485;BME280;67773;50.806;8.776;2023-11-22T03:15:59;100592.47;;;1.60;86.14
78485;BME280;67773;50.806;8.776;2023-11-22T03:18:24;100588.09;;;1.51;85.58
78485;BME280;67773;50.806;8.776;2023-11-22T03:20:49;100580.25;;;1.42;86.46
78485;BME280;67773;50.806;8.776;2023-11-22T03:23:19;100590.72;;;1.43;86.45
78485;BME280;67773;50.806;8.776;2023-11-22T03:25:44;100592.44;;;1.44;86.32
78485;BME280;67773;50.806;8.776;2023-11-22T03:28:10;100601.16;;;1.43;86.52
78485;BME280;67773;50.806;8.776;2023-11-22T03:30:35;100616.84;;;1.31;86.62
78485;BME280;67773;50.806;8.776;2023-11-22T03:33:02;100609.88;;;1.18;86.31
78485;BME280;67773;50.806;8.776;2023-11-22T03:35:27;100618.56;;;1.20;87.33
78485;BME280;67773;50.806;8.776;2023-11-22T03:37:54;100622.94;;;1.21;86.79
78485;BME280;67773;50.806;8.776;2023-11-22T03:40:19;100626.41;;;1.23;86.24
78485;BME280;67773;50.806;8.776;2023-11-22T03:42:45;100636.84;;;1.05;86.62
78485;BME280;67773;50.806;8.776;2023-11-22T03:45:11;100647.28;;;1.00;86.53
78485;BME280;67773;50.806;8.776;2023-11-22T03:47:38;100645.53;;;1.01;86.46
78485;BME280;67773;50.806;8.776;2023-11-22T03:50:05;100649.88;;;0.97;85.96
78485;BME280;67773;50.806;8.776;2023-11-22T03:52:31;100640.31;;;0.96;86.27
78485;BME280;67773;50.806;8.776;2023-11-22T03:54:56;100656.00;;;1.01;86.19
78485;BME280;67773;50.806;8.776;2023-11-22T03:57:22;100649.88;;;0.99;86.19
78485;BME280;67773;50.806;8.776;2023-11-22T03:59:47;100656.81;;;0.91;86.05
78485;BME280;67773;50.806;8.776;2023-11-22T04:02:13;100644.63;;;0.93;85.68
78485;BME280;67773;50.806;8.776;2023-11-22T04:04:39;100652.44;;;0.82;85.95
78485;BME280;67773;50.806;8.776;2023-11-22T04:07:06;100650.72;;;0.87;85.56
78485;BME280;67773;50.806;8.776;2023-11-22T04:09:32;100650.72;;;0.85;86.38
78485;BME280;67773;50.806;8.776;2023-11-22T04:11:59;100651.59;;;0.84;85.47
78485;BME280;67773;50.806;8.776;2023-11-22T04:14:25;100644.53;;;0.67;85.00
78485;BME280;67773;50.806;8.776;2023-11-22T04:16:52;100657.59;;;0.67;85.10
78485;BME280;67773;50.806;8.776;2023-11-22T04:19:17;100658.47;;;0.64;85.19
78485;BME280;67773;50.806;8.776;2023-11-22T04:21:43;100670.59;;;0.57;84.42
78485;BME280;67773;50.806;8.776;2023-11-22T04:24:08;100664.50;;;0.54;85.13
78485;BME280;67773;50.806;8.776;2023-11-22T04:26:34;100670.63;;;0.62;85.31
78485;BME280;67773;50.806;8.776;2023-11-22T04:28:59;100670.63;;;0.61;84.63
78485;BME280;67773;50.806;8.776;2023-11-22T04:31:25;100677.50;;;0.48;84.18
78485;BME280;67773;50.806;8.776;2023-11-22T04:33:50;100679.31;;;0.55;84.68
78485;BME280;67773;50.806;8.776;2023-11-22T04:36:16;100677.56;;;0.52;85.05
78485;BME280;67773;50.806;8.776;2023-11-22T04:38:42;100684.47;;;0.46;84.24
78485;BME280;67773;50.806;8.776;2023-11-22T04:41:07;100667.00;;;0.33;84.25
78485;BME280;67773;50.806;8.776;2023-11-22T04:43:33;100679.19;;;0.40;84.72
78485;BME280;67773;50.806;8.776;2023-11-22T04:45:58;100672.28;;;0.45;84.39
78485;BME280;67773;50.806;8.776;2023-11-22T04:48:25;100672.22;;;0.36;83.47
78485;BME280;67773;50.806;8.776;2023-11-22T04:50:51;100665.19;;;0.28;84.50
78485;BME280;67773;50.806;8.776;2023-11-22T04:53:16;100680.06;;;0.40;84.57
78485;BME280;67773;50.806;8.776;2023-11-22T04:55:42;100681.00;;;0.47;84.04
78485;BME280;67773;50.806;8.776;2023-11-22T04:58:09;100686.16;;;0.41;83.00
78485;BME280;67773;50.806;8.776;2023-11-22T05:00:34;100695.72;;;0.33;83.40
78485;BME280;67773;50.806;8.776;2023-11-22T05:03:00;100696.59;;;0.32;83.36
78485;BME280;67773;50.806;8.776;2023-11-22T05:05:25;100693.00;;;0.20;83.14
78485;BME280;67773;50.806;8.776;2023-11-22T05:07:50;100706.97;;;0.28;83.82
78485;BME280;67773;50.806;8.776;2023-11-22T05:10:16;100702.63;;;0.26;83.80
78485;BME280;67773;50.806;8.776;2023-11-22T05:12:42;100706.09;;;0.23;83.97
78485;BME280;67773;50.806;8.776;2023-11-22T05:15:08;100715.66;;;0.21;82.49
78485;BME280;67773;50.806;8.776;2023-11-22T05:17:34;100723.59;;;0.35;81.30
78485;BME280;67773;50.806;8.776;2023-11-22T05:20:00;100729.72;;;0.42;81.02
78485;BME280;67773;50.806;8.776;2023-11-22T05:22:25;100732.38;;;0.48;81.37
78485;BME280;67773;50.806;8.776;2023-11-22T05:24:51;100727.94;;;0.35;80.53
78485;BME280;67773;50.806;8.776;2023-11-22T05:27:17;100727.91;;;0.32;80.41
78485;BME280;67773;50.806;8.776;2023-11-22T05:29:42;100731.41;;;0.34;79.67
78485;BME280;67773;50.806;8.776;2023-11-22T05:32:08;100720.97;;;0.40;81.06
78485;BME280;67773;50.806;8.776;2023-11-22T05:34:34;100728.03;;;0.50;80.34
78485;BME280;67773;50.806;8.776;2023-11-22T05:36:59;100727.94;;;0.38;79.77
78485;BME280;67773;50.806;8.776;2023-11-22T05:39:24;100726.19;;;0.37;80.79
78485;BME280;67773;50.806;8.776;2023-11-22T05:41:51;100722.69;;;0.33;80.54
78485;BME280;67773;50.806;8.776;2023-11-22T05:44:16;100731.41;;;0.37;81.15
78485;BME280;67773;50.806;8.776;2023-11-22T05:46:42;100753.09;;;0.25;80.38
78485;BME280;67773;50.806;8.776;2023-11-22T05:49:07;100765.25;;;0.21;80.96
78485;BME280;67773;50.806;8.776;2023-11-22T05:51:33;100762.66;;;0.21;80.44
78485;BME280;67773;50.806;8.776;2023-11-22T05:54:02;100770.44;;;0.20;81.08
78485;BME280;67773;50.806;8.776;2023-11-22T05:56:28;100780.06;;;0.25;82.13
78485;BME280;67773;50.806;8.776;2023-11-22T05:58:54;100785.22;;;0.19;81.79
78485;BME280;67773;50.806;8.776;2023-11-22T06:01:19;100786.88;;;0.08;82.22
78485;BME280;67773;50.806;8.776;2023-11-22T06:03:45;100799.91;;;0.07;82.44
78485;BME280;67773;50.806;8.776;2023-11-22T06:06:12;100811.22;;;0.04;82.09
78485;BME280;67773;50.806;8.776;2023-11-22T06:08:37;100813.78;;;0.01;82.30
78485;BME280;67773;50.806;8.776;2023-11-22T06:11:03;100823.19;;;-0.13;82.67
78485;BME280;67773;50.806;8.776;2023-11-22T06:13:28;100829.19;;;-0.22;82.62
78485;BME280;67773;50.806;8.776;2023-11-22T06:15:54;100834.38;;;-0.23;83.21
78485;BME280;67773;50.806;8.776;2023-11-22T06:18:19;100834.31;;;-0.31;83.74
78485;BME280;67773;50.806;8.776;2023-11-22T06:20:45;100843.06;;;-0.27;84.01
78485;BME280;67773;50.806;8.776;2023-11-22T06:23:15;100823.88;;;-0.31;83.43
78485;BME280;67773;50.806;8.776;2023-11-22T06:25:41;100832.66;;;-0.21;84.32
78485;BME280;67773;50.806;8.776;2023-11-22T06:28:07;100825.78;;;-0.18;83.65
78485;BME280;67773;50.806;8.776;2023-11-22T06:30:32;100818.69;;;-0.28;83.96
78485;BME280;67773;50.806;8.776;2023-11-22T06:32:58;100812.53;;;-0.32;84.06
78485;BME280;67773;50.806;8.776;2023-11-22T06:35:24;100804.66;;;-0.41;83.74
78485;BME280;67773;50.806;8.776;2023-11-22T06:37:50;100815.03;;;-0.42;84.18
78485;BME280;67773;50.806;8.776;2023-11-22T06:40:15;100816.69;;;-0.50;84.66
78485;BME280;67773;50.806;8.776;2023-11-22T06:42:42;100824.53;;;-0.50;85.19
78485;BME280;67773;50.806;8.776;2023-11-22T06:45:08;100833.34;;;-0.41;85.45
78485;BME280;67773;50.806;8.776;2023-11-22T06:47:41;100850.84;;;-0.31;85.47
78485;BME280;67773;50.806;8.776;2023-11-22T06:50:07;100852.66;;;-0.23;85.12
78485;BME280;67773;50.806;8.776;2023-11-22T06:52:37;100850.28;;;-0.02;83.88
78485;BME280;67773;50.806;8.776;2023-11-22T06:55:04;100851.25;;;0.09;83.28
78485;BME280;67773;50.806;8.776;2023-11-22T06:57:30;100854.03;;;0.21;82.62
78485;BME280;67773;50.806;8.776;2023-11-22T06:59:56;100858.38;;;0.22;82.60
78485;BME280;67773;50.806;8.776;2023-11-22T07:02:22;100866.38;;;0.41;81.73
78485;BME280;67773;50.806;8.776;2023-11-22T07:04:47;100878.59;;;0.42;82.90
78485;BME280;67773;50.806;8.776;2023-11-22T07:07:12;100873.47;;;0.52;82.42
78485;BME280;67773;50.806;8.776;2023-11-22T07:09:42;100883.16;;;0.63;80.72
78485;BME280;67773;50.806;8.776;2023-11-22T07:12:08;100880.47;;;0.55;79.65
78485;BME280;67773;50.806;8.776;2023-11-22T07:14:33;100876.22;;;0.69;80.33
78485;BME280;67773;50.806;8.776;2023-11-22T07:16:59;100869.16;;;0.61;79.06
78485;BME280;67773;50.806;8.776;2023-11-22T07:19:25;100882.28;;;0.64;79.07
78485;BME280;67773;50.806;8.776;2023-11-22T07:21:50;100871.00;;;0.72;79.46
78485;BME280;67773;50.806;8.776;2023-11-22T07:24:17;100877.19;;;0.82;79.79
78485;BME280;67773;50.806;8.776;2023-11-22T07:26:43;100868.59;;;0.97;79.79
78485;BME280;67773;50.806;8.776;2023-11-22T07:29:09;100865.94;;;0.94;78.67
78485;BME280;67773;50.806;8.776;2023-11-22T07:31:34;100859.88;;;0.96;78.77
78485;BME280;67773;50.806;8.776;2023-11-22T07:34:01;100863.38;;;1.01;79.10
78485;BME280;67773;50.806;8.776;2023-11-22T07:36:27;100859.03;;;1.03;79.53
78485;BME280;67773;50.806;8.776;2023-11-22T07:38:54;100853.00;;;1.09;78.80
78485;BME280;67773;50.806;8.776;2023-11-22T07:41:19;100842.59;;;1.18;79.89
78485;BME280;67773;50.806;8.776;2023-11-22T07:43:44;100845.28;;;1.33;78.89
78485;BME280;67773;50.806;8.776;2023-11-22T07:46:10;100851.44;;;1.40;78.19
78485;BME280;67773;50.806;8.776;2023-11-22T07:48:38;100852.34;;;1.50;77.56
78485;BME280;67773;50.806;8.776;2023-11-22T07:51:03;100863.66;;;1.45;75.90
78485;BME280;67773;50.806;8.776;2023-11-22T07:53:30;100851.47;;;1.54;75.36
78485;BME280;67773;50.806;8.776;2023-11-22T07:55:59;100851.53;;;1.60;75.05
78485;BME280;67773;50.806;8.776;2023-11-22T07:58:26;100852.41;;;1.62;75.23
78485;BME280;67773;50.806;8.776;2023-11-22T08:00:51;100857.59;;;1.50;74.99
78485;BME280;67773;50.806;8.776;2023-11-22T08:03:20;100868.88;;;1.41;73.67
78485;BME280;67773;50.806;8.776;2023-11-22T08:05:52;100871.50;;;1.45;74.93
78485;BME280;67773;50.806;8.776;2023-11-22T08:08:20;100851.47;;;1.52;74.41
78485;BME280;67773;50.806;8.776;2023-11-22T08:10:46;100854.19;;;1.72;73.75
78485;BME280;67773;50.806;8.776;2023-11-22T08:13:13;100853.31;;;1.68;72.98
78485;BME280;67773;50.806;8.776;2023-11-22T08:15:38;100856.81;;;1.77;72.69
78485;BME280;67773;50.806;8.776;2023-11-22T08:18:04;100850.72;;;1.85;71.83
78485;BME280;67773;50.806;8.776;2023-11-22T08:20:30;100858.59;;;1.84;70.48
78485;BME280;67773;50.806;8.776;2023-11-22T08:22:56;100853.34;;;1.87;71.75
78485;BME280;67773;50.806;8.776;2023-11-22T08:25:22;100855.13;;;1.91;70.30
78485;BME280;67773;50.806;8.776;2023-11-22T08:27:47;100862.91;;;1.77;70.59
78485;BME280;67773;50.806;8.776;2023-11-22T08:30:13;100863.75;;;1.62;71.11
78485;BME280;67773;50.806;8.776;2023-11-22T08:32:44;100861.16;;;1.67;70.64
78485;BME280;67773;50.806;8.776;2023-11-22T08:35:12;100864.56;;;1.51;70.57
78485;BME280;67773;50.806;8.776;2023-11-22T08:37:40;100872.41;;;1.54;71.49
78485;BME280;67773;50.806;8.776;2023-11-22T08:40:10;100882.97;;;1.67;70.64
78485;BME280;67773;50.806;8.776;2023-11-22T08:42:45;100890.00;;;1.87;70.34
78485;BME280;67773;50.806;8.776;2023-11-22T08:45:10;100882.25;;;2.13;70.43
78485;BME280;67773;50.806;8.776;2023-11-22T08:47:37;100881.41;;;2.20;68.19
78485;BME280;67773;50.806;8.776;2023-11-22T08:50:03;100886.59;;;2.03;68.03
78485;BME280;67773;50.806;8.776;2023-11-22T08:52:29;100878.78;;;2.23;68.01
78485;BME280;67773;50.806;8.776;2023-11-22T08:54:56;100870.94;;;2.24;68.32
78485;BME280;67773;50.806;8.776;2023-11-22T08:57:21;100881.47;;;2.53;67.80
78485;BME280;67773;50.806;8.776;2023-11-22T08:59:47;100883.19;;;2.57;66.96
78485;BME280;67773;50.806;8.776;2023-11-22T09:02:13;100884.03;;;2.27;69.07
78485;BME280;67773;50.806;8.776;2023-11-22T09:04:40;100887.47;;;2.19;68.98
78485;BME280;67773;50.806;8.776;2023-11-22T09:07:07;100882.22;;;2.03;67.89
78485;BME280;67773;50.806;8.776;2023-11-22T09:09:32;100874.38;;;2.00;69.04
78485;BME280;67773;50.806;8.776;2023-11-22T09:12:00;100881.34;;;2.03;68.37
78485;BME280;67773;50.806;8.776;2023-11-22T09:14:26;100880.44;;;1.98;68.20
78485;BME280;67773;50.806;8.776;2023-11-22T09:16:52;100875.25;;;2.10;69.76
78485;BME280;67773;50.806;8.776;2023-11-22T09:19:21;100889.25;;;2.20;68.90
78485;BME280;67773;50.806;8.776;2023-11-22T09:21:46;100898.03;;;2.58;67.89
78485;BME280;67773;50.806;8.776;2023-11-22T09:24:12;100902.41;;;3.11;65.97
78485;BME280;67773;50.806;8.776;2023-11-22T09:26:37;100902.03;;;4.30;60.64
78485;BME280;67773;50.806;8.776;2023-11-22T09:29:03;100908.59;;;4.94;59.08
78485;BME280;67773;50.806;8.776;2023-11-22T09:31:29;100907.06;;;5.64;56.36
78485;BME280;67773;50.806;8.776;2023-11-22T09:33:55;100904.84;;;5.24;56.23
78485;BME280;67773;50.806;8.776;2023-11-22T09:36:22;100910.00;;;4.15;58.80
78485;BME280;67773;50.806;8.776;2023-11-22T09:38:49;100926.78;;;3.74;61.69
78485;BME280;67773;50.806;8.776;2023-11-22T09:41:15;100922.53;;;3.25;63.04
78485;BME280;67773;50.806;8.776;2023-11-22T09:43:41;100926.06;;;2.95;63.35
78485;BME280;67773;50.806;8.776;2023-11-22T09:46:08;100938.25;;;2.65;65.69
78485;BME280;67773;50.806;8.776;2023-11-22T09:48:36;100937.34;;;2.40;66.36
78485;BME280;67773;50.806;8.776;2023-11-22T09:51:09;100931.25;;;2.53;65.32
78485;BME280;67773;50.806;8.776;2023-11-22T09:56:09;100916.34;;;2.29;65.68
78485;BME280;67773;50.806;8.776;2023-11-22T09:58:40;100915.44;;;2.14;65.47
78485;BME280;67773;50.806;8.776;2023-11-22T10:01:10;100930.25;;;2.15;66.57
78485;BME280;67773;50.806;8.776;2023-11-22T10:03:37;100931.09;;;1.98;66.73
78485;BME280;67773;50.806;8.776;2023-11-22T10:06:02;100933.63;;;1.86;68.16
78485;BME280;67773;50.806;8.776;2023-11-22T10:08:30;100936.25;;;1.83;67.71
78485;BME280;67773;50.806;8.776;2023-11-22T10:10:56;100931.00;;;1.83;67.46
78485;BME280;67773;50.806;8.776;2023-11-22T10:13:22;100920.63;;;2.05;65.42
78485;BME280;67773;50.806;8.776;2023-11-22T10:15:51;100921.63;;;2.42;64.59
78485;BME280;67773;50.806;8.776;2023-11-22T10:18:18;100928.66;;;2.92;64.74
78485;BME280;67773;50.806;8.776;2023-11-22T10:20:44;100916.28;;;3.73;59.91
78485;BME280;67773;50.806;8.776;2023-11-22T10:23:14;100908.97;;;4.44;57.19
78485;BME280;67773;50.806;8.776;2023-11-22T10:25:51;100903.47;;;4.76;55.32
78485;BME280;67773;50.806;8.776;2023-11-22T10:28:18;100907.44;;;5.27;55.96
78485;BME280;67773;50.806;8.776;2023-11-22T10:30:45;100914.25;;;5.48;56.19
78485;BME280;67773;50.806;8.776;2023-11-22T10:33:11;100916.16;;;5.34;54.84
78485;BME280;67773;50.806;8.776;2023-11-22T10:38:09;100929.91;;;4.60;54.71
78485;BME280;67773;50.806;8.776;2023-11-22T10:40:36;100921.41;;;4.13;56.14
78485;BME280;67773;50.806;8.776;2023-11-22T10:43:02;100931.03;;;4.06;59.80
78485;BME280;67773;50.806;8.776;2023-11-22T10:45:30;100928.53;;;3.74;61.08
78485;BME280;67773;50.806;8.776;2023-11-22T10:47:56;100937.34;;;3.59;63.11
78485;BME280;67773;50.806;8.776;2023-11-22T10:50:22;100944.31;;;3.75;64.10
78485;BME280;67773;50.806;8.776;2023-11-22T10:52:50;100948.72;;;3.52;64.32
78485;BME280;67773;50.806;8.776;2023-11-22T10:55:21;100953.97;;;3.61;64.42
78485;BME280;67773;50.806;8.776;2023-11-22T10:57:50;100954.00;;;3.55;64.21
78485;BME280;67773;50.806;8.776;2023-11-22T11:00:19;100962.75;;;3.45;63.83
78485;BME280;67773;50.806;8.776;2023-11-22T11:02:51;100953.16;;;3.26;64.28
78485;BME280;67773;50.806;8.776;2023-11-22T11:05:21;100954.88;;;3.30;65.05
78485;BME280;67773;50.806;8.776;2023-11-22T11:08:07;100948.75;;;3.12;64.33
78485;BME280;67773;50.806;8.776;2023-11-22T11:10:46;100947.00;;;3.45;64.96
78485;BME280;67773;50.806;8.776;2023-11-22T11:13:12;100966.25;;;3.55;63.25
78485;BME280;67773;50.806;8.776;2023-11-22T11:15:42;100962.78;;;3.25;64.89
78485;BME280;67773;50.806;8.776;2023-11-22T11:18:15;100968.00;;;3.21;63.99
78485;BME280;67773;50.806;8.776;2023-11-22T11:20:51;100962.78;;;3.13;63.88
78485;BME280;67773;50.806;8.776;2023-11-22T11:23:20;100958.38;;;3.44;63.66
78485;BME280;67773;50.806;8.776;2023-11-22T11:25:59;100964.91;;;4.70;59.51
78485;BME280;67773;50.806;8.776;2023-11-22T11:28:44;100946.81;;;5.38;57.62
78485;BME280;67773;50.806;8.776;2023-11-22T11:31:10;100936.13;;;5.55;55.21
78485;BME280;67773;50.806;8.776;2023-11-22T11:33:53;100935.06;;;5.71;55.23
78485;BME280;67773;50.806;8.776;2023-11-22T11:36:28;100928.31;;;5.45;55.84
78485;BME280;67773;50.806;8.776;2023-11-22T11:38:55;100925.06;;;6.05;54.81
78485;BME280;67773;50.806;8.776;2023-11-22T11:41:26;100934.00;;;5.89;54.14
78485;BME280;67773;50.806;8.776;2023-11-22T11:43:53;100935.38;;;5.40;55.74
78485;BME280;67773;50.806;8.776;2023-11-22T11:46:19;100919.94;;;5.02;57.03
78485;BME280;67773;50.806;8.776;2023-11-22T11:48:49;100925.38;;;4.81;57.19
78485;BME280;67773;50.806;8.776;2023-11-22T11:51:17;100922.00;;;4.62;55.43
78485;BME280;67773;50.806;8.776;2023-11-22T11:53:44;100910.09;;;3.92;57.36
78485;BME280;67773;50.806;8.776;2023-11-22T11:56:10;100910.00;;;4.15;58.44
78485;BME280;67773;50.806;8.776;2023-11-22T11:58:36;100906.47;;;4.16;59.37
78485;BME280;67773;50.806;8.776;2023-11-22T12:01:04;100900.50;;;3.87;58.63
78485;BME280;67773;50.806;8.776;2023-11-22T12:03:32;100904.84;;;3.91;58.56
78485;BME280;67773;50.806;8.776;2023-11-22T12:05:57;100911.84;;;3.92;60.07
78485;BME280;67773;50.806;8.776;2023-11-22T12:08:23;100920.69;;;3.63;59.59
78485;BME280;67773;50.806;8.776;2023-11-22T12:10:48;100904.94;;;3.75;60.19
78485;BME280;67773;50.806;8.776;2023-11-22T12:13:18;100900.47;;;3.85;59.94
78485;BME280;67773;50.806;8.776;2023-11-22T12:15:44;100918.13;;;3.43;58.96
78485;BME280;67773;50.806;8.776;2023-11-22T12:18:09;100902.38;;;3.45;58.66
78485;BME280;67773;50.806;8.776;2023-11-22T12:20:37;100909.34;;;3.66;58.96
78485;BME280;67773;50.806;8.776;2023-11-22T12:23:02;100911.91;;;3.86;57.79
78485;BME280;67773;50.806;8.776;2023-11-22T12:25:29;100917.19;;;3.76;57.59
78485;BME280;67773;50.806;8.776;2023-11-22T12:27:54;100924.16;;;3.78;58.45
78485;BME280;67773;50.806;8.776;2023-11-22T12:30:35;100911.88;;;3.83;60.18
78485;BME280;67773;50.806;8.776;2023-11-22T12:33:03;100900.47;;;3.91;59.26
78485;BME280;67773;50.806;8.776;2023-11-22T12:35:30;100896.13;;;3.89;59.48
78485;BME280;67773;50.806;8.776;2023-11-22T12:37:55;100904.94;;;3.66;57.81
78485;BME280;67773;50.806;8.776;2023-11-22T12:40:21;100891.84;;;3.54;58.86
78485;BME280;67773;50.806;8.776;2023-11-22T12:42:48;100891.81;;;3.62;57.37
78485;BME280;67773;50.806;8.776;2023-11-22T12:45:25;100862.97;;;3.54;59.23
78485;BME280;67773;50.806;8.776;2023-11-22T12:47:53;100864.81;;;3.28;60.45
78485;BME280;67773;50.806;8.776;2023-11-22T12:52:55;100846.47;;;3.02;59.88
78485;BME280;67773;50.806;8.776;2023-11-22T12:55:20;100841.22;;;3.15;58.61
78485;BME280;67773;50.806;8.776;2023-11-22T12:57:56;100827.25;;;3.06;59.16
78485;BME280;67773;50.806;8.776;2023-11-22T13:00:22;100815.91;;;2.79;60.13
78485;BME280;67773;50.806;8.776;2023-11-22T13:02:47;100812.41;;;2.88;61.90
78485;BME280;67773;50.806;8.776;2023-11-22T13:05:12;100822.88;;;3.06;60.63